Time;durP1;ratioP1;P1;durP2;ratioP2;P2;SDS_P1;SDS_P2;PMS_P1;PMS_P2;Temp;Humidity;BMP_temperature;BMP_pressure;BME280_temperature;BME280_humidity;BME280_pressure;Samples;Min_cycle;Max_cycle;Signal;HPM_P1;HPM_P2
2022/03/31 00:00:34;;;;;;;38.30;25.67;;;;;;;10.52;62.72;97455.22;4124751;28;20273;-66
2022/03/31 00:02:35;;;;;;;37.47;26.23;;;;;;;10.35;62.90;97454.13;4124888;28;20230;-67
2022/03/31 00:04:38;;;;;;;41.60;26.13;;;;;;;9.93;64.19;97474.97;4124467;28;20459;-67
2022/03/31 00:06:39;;;;;;;37.80;25.27;;;;;;;10.23;63.31;97454.78;4124425;28;20692;-67
2022/03/31 00:08:41;;;;;;;40.77;26.37;;;;;;;10.20;63.49;97457.84;4123957;28;20254;-67
2022/03/31 00:10:49;;;;;;;38.17;26.60;;;;;;;10.23;63.65;97453.97;4125365;28;20312;-67
2022/03/31 00:12:52;;;;;;;42.73;26.60;;;;;;;10.04;63.87;97439.75;4132589;28;20697;-67
2022/03/31 00:14:54;;;;;;;42.07;27.80;;;;;;;10.05;64.64;97465.28;4130385;28;20800;-67
2022/03/31 00:16:55;;;;;;;41.53;27.33;;;;;;;10.23;64.04;97440.69;4139900;28;20691;-67
2022/03/31 00:18:57;;;;;;;45.17;27.90;;;;;;;10.21;64.01;97440.91;4127052;28;20899;-67
2022/03/31 00:21:00;;;;;;;39.50;26.33;;;;;;;10.06;64.60;97441.19;4127584;28;20316;-67
2022/03/31 00:23:02;;;;;;;44.23;28.33;;;;;;;10.31;64.33;97447.59;4127261;28;20240;-67
2022/03/31 00:25:05;;;;;;;44.83;28.80;;;;;;;9.92;65.07;97442.25;4126659;28;20254;-67
2022/03/31 00:27:06;;;;;;;38.37;26.60;;;;;;;9.73;66.16;97464.41;4127583;28;20262;-67
2022/03/31 00:29:08;;;;;;;41.27;26.33;;;;;;;9.95;65.44;97451.66;4130244;28;20264;-67
2022/03/31 00:31:10;;;;;;;42.60;27.90;;;;;;;10.31;64.53;97436.97;4130709;28;20258;-67
2022/03/31 00:33:12;;;;;;;42.07;27.43;;;;;;;9.72;65.28;97421.13;4130098;28;20238;-67
2022/03/31 00:35:14;;;;;;;41.03;26.80;;;;;;;10.29;64.25;97417.78;4127577;28;20233;-67
2022/03/31 00:37:15;;;;;;;42.30;28.20;;;;;;;10.19;64.36;97411.06;4126600;28;20312;-67
2022/03/31 00:39:29;;;;;;;42.53;29.00;;;;;;;10.03;65.20;97424.88;4127475;28;20273;-67
2022/03/31 00:41:36;;;;;;;43.67;28.13;;;;;;;10.30;64.27;97403.47;4126970;28;20782;-68
2022/03/31 00:43:38;;;;;;;41.27;26.77;;;;;;;9.61;66.86;97448.31;4125985;28;20361;-67
2022/03/31 00:45:50;;;;;;;42.80;27.10;;;;;;;9.56;66.77;97430.34;4127118;28;20327;-67
2022/03/31 00:47:53;;;;;;;43.40;28.57;;;;;;;9.77;65.77;97402.72;4127185;28;20288;-67
2022/03/31 00:49:55;;;;;;;42.83;28.63;;;;;;;9.65;66.09;97391.16;4126852;28;20321;-67
2022/03/31 00:51:56;;;;;;;43.10;28.10;;;;;;;10.39;64.48;97380.91;4126906;28;20297;-67
2022/03/31 00:53:58;;;;;;;43.30;27.60;;;;;;;10.10;64.85;97355.81;4125853;28;20705;-67
2022/03/31 00:56:01;;;;;;;42.10;27.80;;;;;;;10.96;63.34;97373.72;4126830;28;20235;-67
2022/03/31 00:58:05;;;;;;;44.53;28.13;;;;;;;10.29;65.14;97393.88;4126450;28;20277;-67
2022/03/31 01:00:09;;;;;;;44.43;27.90;;;;;;;10.23;65.23;97369.78;4127373;28;20775;-67
2022/03/31 01:02:12;;;;;;;44.47;28.10;;;;;;;10.31;65.20;97379.31;4131198;28;20236;-67
2022/03/31 01:04:15;;;;;;;41.20;27.47;;;;;;;10.10;65.47;97383.16;4126560;28;20265;-67
2022/03/31 01:06:16;;;;;;;39.83;27.27;;;;;;;10.36;64.89;97368.91;4126614;28;20757;-67
2022/03/31 01:08:18;;;;;;;36.87;26.80;;;;;;;10.86;63.71;97359.31;4126890;28;20275;-67
2022/03/31 01:10:20;;;;;;;43.17;28.10;;;;;;;9.93;65.88;97374.09;4129094;28;20253;-67
2022/03/31 01:12:22;;;;;;;40.60;27.37;;;;;;;10.60;64.39;97369.13;4130859;28;20256;-67
2022/03/31 01:14:23;;;;;;;40.20;26.43;;;;;;;10.80;63.21;97331.72;4128452;28;20253;-67
2022/03/31 01:16:25;;;;;;;40.37;26.70;;;;;;;10.55;63.24;97335.22;4125266;28;20663;-67
2022/03/31 01:18:27;;;;;;;42.53;27.53;;;;;;;11.11;62.09;97330.81;4126653;28;20849;-67
2022/03/31 01:20:28;;;;;;;43.40;28.57;;;;;;;10.57;63.64;97365.03;4126912;28;20630;-67
2022/03/31 01:22:31;;;;;;;43.53;28.03;;;;;;;10.27;64.26;97366.72;4125706;28;20264;-67
2022/03/31 01:24:33;;;;;;;42.93;28.17;;;;;;;10.18;64.39;97363.50;4126774;28;20233;-67
2022/03/31 01:26:38;;;;;;;42.87;28.03;;;;;;;10.22;64.56;97384.09;4126383;28;20250;-67
2022/03/31 01:28:42;;;;;;;41.73;26.67;;;;;;;9.83;65.55;97382.50;4126226;28;20231;-67
2022/03/31 01:30:44;;;;;;;39.90;28.10;;;;;;;10.50;64.01;97360.78;4126847;28;20321;-67
2022/03/31 01:32:46;;;;;;;41.13;26.57;;;;;;;10.16;64.66;97361.06;4125840;28;20231;-67
2022/03/31 01:34:48;;;;;;;41.20;26.47;;;;;;;9.96;65.83;97390.41;4126677;28;20230;-67
2022/03/31 01:36:49;;;;;;;41.57;27.80;;;;;;;10.21;64.92;97368.38;4129857;28;20235;-68
2022/03/31 01:38:52;;;;;;;41.37;26.47;;;;;;;10.29;64.89;97364.66;4126704;28;20238;-67
2022/03/31 01:40:54;;;;;;;39.43;26.70;;;;;;;10.40;64.46;97346.16;4125027;28;20258;-68
2022/03/31 01:42:56;;;;;;;40.77;26.90;;;;;;;10.34;63.97;97328.44;4125435;28;20318;-68
2022/03/31 01:44:58;;;;;;;38.63;26.17;;;;;;;10.70;63.45;97334.06;4126342;28;20241;-68
2022/03/31 01:47:00;;;;;;;40.30;26.50;;;;;;;10.32;64.32;97343.78;4125654;28;20748;-68
2022/03/31 01:49:01;;;;;;;38.10;25.07;;;;;;;9.79;65.77;97346.78;4125647;28;20272;-67
2022/03/31 01:51:04;;;;;;;38.40;23.87;;;;;;;10.62;63.77;97335.16;4126060;28;20710;-66
2022/03/31 01:53:06;;;;;;;32.90;23.17;;;;;;;10.16;63.98;97297.34;4125889;28;20238;-66
2022/03/31 01:55:09;;;;;;;33.73;23.87;;;;;;;10.17;64.27;97317.53;4125488;28;20322;-66
2022/03/31 01:57:13;;;;;;;34.03;23.53;;;;;;;10.35;64.55;97353.19;4126132;28;20298;-66
2022/03/31 01:59:15;;;;;;;35.83;23.07;;;;;;;10.63;63.54;97324.31;4128801;28;20246;-69
2022/03/31 02:01:17;;;;;;;30.53;22.57;;;;;;;10.37;64.44;97341.28;4128247;28;20341;-68
2022/03/31 02:03:19;;;;;;;34.30;23.33;;;;;;;10.41;64.48;97339.84;4125736;28;20652;-66
2022/03/31 02:05:21;;;;;;;31.67;22.10;;;;;;;9.84;64.71;97309.78;4126264;28;20233;-67
2022/03/31 02:07:23;;;;;;;34.17;23.13;;;;;;;10.81;62.97;97315.56;4125963;28;20249;-68
2022/03/31 02:09:25;;;;;;;32.83;22.60;;;;;;;10.02;64.83;97328.47;4126886;28;20482;-68
2022/03/31 02:11:28;;;;;;;28.93;20.90;;;;;;;10.12;63.20;97298.78;4125875;28;20358;-68
2022/03/31 02:13:30;;;;;;;25.80;20.03;;;;;;;10.31;63.02;97298.84;4127044;28;20248;-67
2022/03/31 02:15:31;;;;;;;28.93;21.37;;;;;;;10.51;62.91;97301.31;4132604;28;20754;-67
2022/03/31 02:17:33;;;;;;;28.13;20.50;;;;;;;9.59;65.58;97325.69;4125699;28;20625;-67
2022/03/31 02:19:36;;;;;;;27.47;20.23;;;;;;;9.40;67.39;97373.28;4126107;28;20323;-67
2022/03/31 02:21:37;;;;;;;27.47;20.33;;;;;;;9.33;65.96;97330.03;4125373;28;20272;-67
2022/03/31 02:23:39;;;;;;;24.37;17.20;;;;;;;10.70;62.87;97303.00;4125352;28;20727;-67
2022/03/31 02:25:41;;;;;;;24.60;18.73;;;;;;;9.79;64.42;97304.31;4125874;28;20247;-67
2022/03/31 02:27:42;;;;;;;26.33;18.93;;;;;;;9.60;65.95;97354.63;4125097;28;20261;-67
2022/03/31 02:29:44;;;;;;;26.43;19.00;;;;;;;9.93;64.13;97289.94;4125905;28;20692;-67
2022/03/31 02:31:46;;;;;;;26.50;19.10;;;;;;;9.62;64.88;97317.28;4125490;28;20259;-67
2022/03/31 02:33:48;;;;;;;25.43;17.50;;;;;;;9.41;66.64;97356.31;4124503;28;20279;-67
2022/03/31 02:35:50;;;;;;;25.60;18.07;;;;;;;8.93;66.36;97315.09;4125785;28;20252;-67
2022/03/31 02:37:52;;;;;;;20.10;16.97;;;;;;;9.08;67.59;97364.38;4125548;28;20265;-67
2022/03/31 02:39:54;;;;;;;21.57;17.07;;;;;;;10.01;64.64;97312.75;4125047;28;20273;-67
2022/03/31 02:42:01;;;;;;;23.93;17.20;;;;;;;10.17;63.48;97274.25;4125267;28;20995;-67
2022/03/31 02:44:04;;;;;;;22.40;17.60;;;;;;;9.58;65.09;97313.41;4125086;28;20257;-67
2022/03/31 02:46:06;;;;;;;22.47;17.53;;;;;;;9.58;65.28;97324.81;4124770;28;20265;-67
2022/03/31 02:48:08;;;;;;;19.97;16.17;;;;;;;9.39;67.00;97346.97;4122155;28;20259;-67
2022/03/31 02:50:10;;;;;;;22.77;16.33;;;;;;;10.07;64.04;97304.72;4125737;28;20268;-67
2022/03/31 02:52:12;;;;;;;23.23;17.80;;;;;;;10.32;63.42;97290.66;4125044;28;20237;-67
2022/03/31 02:56:35;;;;;;;24.23;17.30;;;;;;;10.34;62.69;97267.34;4124052;28;20733;-67
2022/03/31 02:58:37;;;;;;;23.00;18.20;;;;;;;10.10;64.23;97306.16;4128865;28;20276;-67
2022/03/31 03:00:38;;;;;;;25.03;18.00;;;;;;;9.58;65.61;97321.34;4129104;28;20321;-67
2022/03/31 03:02:40;;;;;;;25.30;19.83;;;;;;;9.91;64.36;97310.59;4125216;28;20230;-67
2022/03/31 03:04:41;;;;;;;24.57;18.00;;;;;;;9.99;63.87;97296.22;4125628;28;20258;-67
2022/03/31 03:06:43;;;;;;;25.63;19.20;;;;;;;10.35;63.12;97292.88;4123854;28;20879;-67
2022/03/31 03:08:45;;;;;;;26.87;20.03;;;;;;;10.13;63.71;97295.09;4125746;28;20313;-68
2022/03/31 03:10:47;;;;;;;26.07;19.80;;;;;;;10.60;62.31;97281.44;4125329;28;20317;-67
2022/03/31 03:12:51;;;;;;;29.27;20.60;;;;;;;10.44;62.77;97269.50;4124387;28;20266;-67
2022/03/31 03:14:53;;;;;;;27.20;20.90;;;;;;;10.47;62.34;97271.72;4125391;28;20265;-67
2022/03/31 03:16:55;;;;;;;28.10;21.03;;;;;;;9.69;64.49;97288.88;4125058;28;20317;-67
2022/03/31 03:18:56;;;;;;;26.77;21.27;;;;;;;9.63;64.93;97289.72;4124953;28;20699;-67
2022/03/31 03:20:58;;;;;;;27.13;21.47;;;;;;;9.83;64.25;97279.78;4125512;28;20317;-67
2022/03/31 03:22:59;;;;;;;27.40;20.87;;;;;;;9.24;66.48;97307.44;4124954;28;20317;-68
2022/03/31 03:25:01;;;;;;;29.70;20.90;;;;;;;9.71;65.34;97294.78;4123868;28;20264;-67
2022/03/31 03:27:03;;;;;;;28.53;21.53;;;;;;;9.44;65.02;97267.56;4132639;28;20766;-67
2022/03/31 03:29:05;;;;;;;28.13;21.03;;;;;;;9.50;65.47;97302.03;4125337;28;20523;-68
2022/03/31 03:31:07;;;;;;;27.37;21.83;;;;;;;9.26;66.56;97323.94;4124980;28;20249;-68
2022/03/31 03:33:08;;;;;;;27.77;21.83;;;;;;;9.40;65.63;97306.13;4124669;28;20234;-68
2022/03/31 03:35:11;;;;;;;27.73;21.63;;;;;;;9.24;65.93;97294.97;4125349;28;20679;-67
2022/03/31 03:37:13;;;;;;;28.10;21.57;;;;;;;9.37;66.17;97317.16;4124644;28;20365;-68
2022/03/31 03:39:15;;;;;;;29.23;21.67;;;;;;;9.66;65.50;97303.38;4125270;28;20332;-68
2022/03/31 03:41:17;;;;;;;28.80;21.90;;;;;;;9.93;64.09;97270.56;4126058;28;20235;-68
2022/03/31 03:43:18;;;;;;;26.50;20.67;;;;;;;9.20;66.46;97335.38;4127773;28;20329;-67
2022/03/31 03:45:20;;;;;;;28.17;20.60;;;;;;;9.06;66.99;97345.22;4125597;28;20357;-66
2022/03/31 03:47:22;;;;;;;24.43;20.63;;;;;;;8.81;66.67;97318.56;4128239;28;20270;-67
2022/03/31 03:49:23;;;;;;;27.80;20.87;;;;;;;9.82;64.21;97288.81;4128415;28;20324;-67
2022/03/31 03:51:25;;;;;;;27.67;20.10;;;;;;;9.46;65.64;97302.66;4127634;28;20264;-67
2022/03/31 03:53:27;;;;;;;26.83;19.57;;;;;;;9.32;65.94;97317.81;4127837;28;20293;-68
2022/03/31 03:55:29;;;;;;;28.20;20.90;;;;;;;9.58;64.86;97292.19;4127286;28;20542;-67
2022/03/31 03:57:31;;;;;;;26.37;20.80;;;;;;;9.02;66.47;97328.91;4127258;28;20261;-67
2022/03/31 03:59:33;;;;;;;26.93;20.63;;;;;;;9.04;65.69;97315.47;4126047;28;20226;-68
2022/03/31 04:01:35;;;;;;;25.63;19.80;;;;;;;9.70;64.54;97306.41;4123732;28;20273;-68
2022/03/31 04:03:37;;;;;;;26.90;20.50;;;;;;;9.69;64.59;97292.34;4123117;28;20234;-68
2022/03/31 04:05:38;;;;;;;26.17;19.87;;;;;;;9.63;64.64;97298.50;4123354;28;20272;-70
2022/03/31 04:07:41;;;;;;;26.93;20.63;;;;;;;9.63;65.07;97308.31;4123720;28;20325;-68
2022/03/31 04:09:42;;;;;;;26.30;20.47;;;;;;;8.89;67.22;97350.16;4122121;28;20236;-69
2022/03/31 04:11:44;;;;;;;26.30;21.13;;;;;;;8.54;67.10;97287.66;4125919;28;20321;-66
2022/03/31 04:13:46;;;;;;;25.60;19.43;;;;;;;8.75;67.94;97339.56;4128455;28;20672;-67
2022/03/31 04:15:48;;;;;;;25.73;19.80;;;;;;;10.28;63.07;97288.66;4143033;28;20237;-67
2022/03/31 04:17:49;;;;;;;25.73;19.50;;;;;;;9.61;64.27;97283.81;4133455;28;20770;-67
2022/03/31 04:19:51;;;;;;;25.50;19.23;;;;;;;9.21;64.81;97295.41;4128082;28;20269;-68
2022/03/31 04:21:53;;;;;;;27.50;19.70;;;;;;;9.60;64.33;97296.25;4127717;28;20598;-65
2022/03/31 04:23:54;;;;;;;22.70;19.20;;;;;;;9.21;64.55;97284.78;4124476;28;20704;-65
2022/03/31 04:25:56;;;;;;;25.10;19.70;;;;;;;8.73;65.31;97317.78;4106696;28;20344;-65
2022/03/31 04:27:58;;;;;;;25.30;20.30;;;;;;;8.79;65.01;97315.31;4127489;28;20328;-65
2022/03/31 04:29:59;;;;;;;29.03;20.00;;;;;;;8.33;67.50;97352.22;4132531;28;20727;-66
2022/03/31 04:32:01;;;;;;;23.80;19.73;;;;;;;8.48;66.84;97359.97;4127379;28;20296;-66
2022/03/31 04:34:03;;;;;;;26.53;20.73;;;;;;;8.43;65.71;97308.66;4126009;28;20765;-65
2022/03/31 04:36:05;;;;;;;25.00;19.77;;;;;;;8.02;67.29;97308.59;4127119;28;20328;-66
2022/03/31 04:38:06;;;;;;;26.40;20.43;;;;;;;9.33;64.17;97301.69;4127571;28;20777;-65
2022/03/31 04:40:09;;;;;;;26.97;20.77;;;;;;;7.40;68.81;97310.50;4119529;28;20644;-68
2022/03/31 04:42:11;;;;;;;26.63;19.83;;;;;;;8.46;65.95;97302.91;4126054;28;20257;-66
2022/03/31 04:44:13;;;;;;;27.63;20.40;;;;;;;7.60;68.42;97342.31;4126928;28;20222;-66
2022/03/31 04:46:15;;;;;;;25.93;21.20;;;;;;;8.12;67.34;97337.34;4133758;28;20261;-66
2022/03/31 04:48:17;;;;;;;25.77;20.10;;;;;;;7.12;71.59;97399.63;4126666;28;20247;-66
2022/03/31 04:50:18;;;;;;;27.70;20.40;;;;;;;7.15;70.03;97371.00;4129755;28;20548;-66
2022/03/31 04:52:20;;;;;;;31.47;21.37;;;;;;;7.74;68.16;97340.50;4127056;28;20269;-66
2022/03/31 04:54:22;;;;;;;26.93;20.50;;;;;;;8.01;67.82;97328.13;4126694;28;20309;-66
2022/03/31 04:56:23;;;;;;;27.30;20.67;;;;;;;8.26;67.41;97314.31;4123575;28;20253;-66
2022/03/31 04:58:25;;;;;;;29.27;21.33;;;;;;;7.75;66.99;97320.16;4126320;28;20614;-66
2022/03/31 05:02:33;;;;;;;24.97;18.57;;;;;;;6.28;73.81;97349.25;4172785;27;20883;-65
2022/03/31 05:04:35;;;;;;;27.00;20.63;;;;;;;5.32;75.59;97380.28;4164410;28;21118;-66
2022/03/31 05:06:37;;;;;;;28.60;20.20;;;;;;;7.08;69.93;97296.16;4152398;28;20233;-66
2022/03/31 05:08:38;;;;;;;25.33;18.60;;;;;;;7.15;69.70;97312.84;4163593;28;20255;-66
2022/03/31 05:10:41;;;;;;;26.50;20.07;;;;;;;8.06;67.65;97295.78;4172083;28;20714;-66
2022/03/31 05:12:43;;;;;;;25.43;19.43;;;;;;;7.96;67.64;97282.94;4163454;28;20228;-66
2022/03/31 05:14:45;;;;;;;27.63;20.07;;;;;;;8.99;63.76;97227.81;4154709;28;20319;-66
2022/03/31 05:16:46;;;;;;;26.10;19.90;;;;;;;8.74;63.59;97231.16;4155450;28;20268;-66
2022/03/31 05:18:48;;;;;;;28.47;20.60;;;;;;;7.79;67.13;97318.75;4155810;28;20445;-66
2022/03/31 05:20:50;;;;;;;26.90;20.97;;;;;;;8.51;64.80;97258.13;4154384;28;20260;-67
2022/03/31 05:22:51;;;;;;;25.00;20.63;;;;;;;8.28;65.66;97291.09;4162296;28;20263;-66
2022/03/31 05:24:53;;;;;;;26.53;19.83;;;;;;;8.60;65.50;97271.97;4155450;28;20268;-66
2022/03/31 05:26:54;;;;;;;27.93;19.83;;;;;;;8.73;64.17;97256.84;4154525;28;20657;-66
2022/03/31 05:28:56;;;;;;;28.30;21.13;;;;;;;7.91;67.37;97301.25;4155428;28;20271;-66
2022/03/31 05:30:58;;;;;;;28.97;21.00;;;;;;;8.18;65.54;97258.94;4155420;28;20312;-67
2022/03/31 05:33:02;;;;;;;27.27;20.30;;;;;;;8.62;65.05;97261.97;4154291;28;20232;-67
2022/03/31 05:35:06;;;;;;;27.27;21.47;;;;;;;8.90;64.51;97280.22;4159374;28;20231;-66
2022/03/31 05:37:08;;;;;;;25.73;20.07;;;;;;;8.97;63.78;97248.41;4154962;28;20284;-66
2022/03/31 05:39:09;;;;;;;27.63;20.63;;;;;;;8.91;64.20;97276.53;4159429;28;20273;-66
2022/03/31 05:41:11;;;;;;;27.03;20.47;;;;;;;8.36;65.52;97276.88;4149700;28;20305;-66
2022/03/31 05:43:13;;;;;;;29.43;20.20;;;;;;;8.94;64.13;97252.28;4158707;28;20732;-66
2022/03/31 05:45:15;;;;;;;26.20;20.07;;;;;;;9.28;62.91;97258.25;4158604;28;20299;-67
2022/03/31 05:47:17;;;;;;;26.67;20.30;;;;;;;8.17;65.42;97276.66;4158529;28;20828;-66
2022/03/31 05:49:19;;;;;;;26.23;20.73;;;;;;;8.53;65.80;97282.56;4165433;28;20270;-66
2022/03/31 05:51:21;;;;;;;28.23;20.27;;;;;;;8.94;62.95;97225.78;4155117;28;20323;-66
2022/03/31 05:53:22;;;;;;;29.10;20.97;;;;;;;8.72;64.67;97263.16;4154456;28;20221;-66
2022/03/31 05:55:24;;;;;;;28.40;20.10;;;;;;;8.59;64.43;97239.34;4160649;28;20671;-66
2022/03/31 05:57:26;;;;;;;25.50;19.37;;;;;;;8.61;65.60;97282.34;4165213;28;20362;-66
2022/03/31 05:59:27;;;;;;;27.27;20.23;;;;;;;9.15;63.66;97251.19;4154779;28;20640;-66
2022/03/31 06:01:29;;;;;;;28.73;20.00;;;;;;;8.38;65.35;97280.13;4154901;28;20316;-66
2022/03/31 06:03:31;;;;;;;26.87;18.97;;;;;;;7.63;68.32;97326.03;4157292;28;20263;-66
2022/03/31 06:05:32;;;;;;;27.77;20.33;;;;;;;7.60;68.15;97310.56;4158209;28;20236;-66
2022/03/31 06:07:34;;;;;;;28.07;18.97;;;;;;;8.26;66.20;97287.03;4155404;28;20314;-66
2022/03/31 06:09:36;;;;;;;27.40;20.47;;;;;;;8.37;66.84;97299.66;4154711;28;20300;-66
2022/03/31 06:11:38;;;;;;;24.90;20.20;;;;;;;8.16;66.33;97298.03;4153921;28;20260;-66
2022/03/31 06:13:39;;;;;;;27.37;20.47;;;;;;;7.96;66.87;97300.66;4151812;28;20654;-66
2022/03/31 06:15:41;;;;;;;26.97;20.70;;;;;;;8.62;65.04;97278.66;4144140;28;20241;-66
2022/03/31 06:17:45;;;;;;;29.27;20.67;;;;;;;7.72;67.74;97339.91;4143104;28;20244;-66
2022/03/31 06:19:47;;;;;;;26.27;20.03;;;;;;;7.64;67.58;97332.94;4146402;28;20268;-66
2022/03/31 06:21:48;;;;;;;29.60;22.13;;;;;;;7.76;67.70;97329.72;4143728;28;20323;-66
2022/03/31 06:23:50;;;;;;;25.77;20.60;;;;;;;7.83;67.26;97304.09;4143695;28;20245;-66
2022/03/31 06:25:52;;;;;;;29.53;21.30;;;;;;;7.78;68.06;97327.69;4143295;28;20332;-69
2022/03/31 06:27:54;;;;;;;31.03;21.70;;;;;;;8.31;66.16;97295.19;4144000;28;20733;-66
2022/03/31 06:29:56;;;;;;;30.00;21.13;;;;;;;7.96;67.06;97296.19;4144670;28;20241;-66
2022/03/31 06:31:58;;;;;;;31.13;22.30;;;;;;;7.74;67.88;97313.25;4149307;28;20223;-66
2022/03/31 06:34:00;;;;;;;28.07;20.53;;;;;;;7.86;68.02;97327.50;4143659;28;20291;-66
2022/03/31 06:36:03;;;;;;;26.90;20.67;;;;;;;7.87;68.08;97328.31;4144388;28;20237;-66
2022/03/31 06:38:04;;;;;;;30.63;21.57;;;;;;;7.97;67.92;97319.00;4142823;28;20237;-66
2022/03/31 06:40:07;;;;;;;29.97;20.80;;;;;;;8.45;66.65;97288.88;4153061;28;20608;-68
2022/03/31 06:42:10;;;;;;;31.17;21.47;;;;;;;8.85;65.41;97274.75;4156321;28;20323;-66
2022/03/31 06:44:13;;;;;;;28.37;20.33;;;;;;;8.63;66.31;97282.16;4146724;28;20336;-66
2022/03/31 06:46:15;;;;;;;29.70;21.83;;;;;;;8.44;65.47;97260.78;4146785;28;20243;-67
2022/03/31 06:48:17;;;;;;;28.37;20.87;;;;;;;8.86;64.93;97266.59;4147100;28;20303;-66
2022/03/31 06:50:19;;;;;;;33.90;22.17;;;;;;;8.59;64.93;97263.19;4156915;28;20252;-66
2022/03/31 06:52:20;;;;;;;32.53;22.87;;;;;;;8.69;65.83;97287.41;4145740;28;20263;-66
2022/03/31 06:54:22;;;;;;;26.90;21.40;;;;;;;8.47;66.14;97297.41;4149443;28;20319;-67
2022/03/31 06:56:27;;;;;;;26.97;20.53;;;;;;;7.86;68.21;97324.88;4143181;28;20765;-67
2022/03/31 06:58:30;;;;;;;30.20;22.07;;;;;;;8.43;66.99;97303.34;4143149;28;20256;-67
2022/03/31 07:00:31;;;;;;;28.00;22.43;;;;;;;9.20;64.11;97272.59;4143411;28;20432;-67
2022/03/31 07:02:33;;;;;;;30.13;21.47;;;;;;;9.13;63.31;97235.50;4142182;28;20229;-67
2022/03/31 07:04:35;;;;;;;31.70;22.60;;;;;;;8.46;66.46;97305.56;4143510;28;20233;-67
2022/03/31 07:06:36;;;;;;;28.13;21.07;;;;;;;8.84;65.36;97294.31;4143217;28;20264;-65
2022/03/31 07:08:38;;;;;;;28.70;21.43;;;;;;;8.52;65.27;97273.78;4141187;28;20249;-67
2022/03/31 07:10:40;;;;;;;32.30;21.70;;;;;;;8.67;65.07;97267.44;4143088;28;20725;-66
2022/03/31 07:12:41;;;;;;;29.17;21.00;;;;;;;8.68;65.83;97288.44;4142951;28;20757;-66
2022/03/31 07:14:44;;;;;;;30.17;21.77;;;;;;;9.12;65.00;97300.13;4143110;28;20821;-67
2022/03/31 07:16:46;;;;;;;29.70;20.57;;;;;;;8.97;65.43;97288.16;4142443;28;20695;-66
2022/03/31 07:18:48;;;;;;;27.30;20.37;;;;;;;8.76;65.30;97304.13;4142879;28;20243;-67
2022/03/31 07:20:50;;;;;;;30.77;20.60;;;;;;;8.39;66.38;97303.75;4143222;28;20723;-66
2022/03/31 07:22:51;;;;;;;32.00;23.10;;;;;;;8.00;66.70;97300.06;4142003;28;20747;-67
2022/03/31 07:24:53;;;;;;;29.03;21.67;;;;;;;8.29;65.53;97263.63;4141981;28;20311;-67
2022/03/31 07:26:55;;;;;;;30.27;22.60;;;;;;;8.67;66.34;97296.59;4142555;28;20257;-67
2022/03/31 07:28:56;;;;;;;28.40;20.70;;;;;;;8.90;65.44;97289.00;4142498;28;20316;-66
2022/03/31 07:30:58;;;;;;;28.37;21.13;;;;;;;8.15;67.20;97310.47;4142736;28;20289;-66
2022/03/31 07:33:03;;;;;;;29.20;20.03;;;;;;;8.69;65.18;97281.28;4142133;28;20749;-66
2022/03/31 07:35:05;;;;;;;27.73;20.50;;;;;;;8.94;65.06;97281.44;4142286;28;20675;-66
2022/03/31 07:37:07;;;;;;;28.10;21.30;;;;;;;8.07;67.30;97320.41;4143819;28;20283;-68
2022/03/31 07:39:09;;;;;;;27.80;20.80;;;;;;;8.64;66.13;97281.91;4147270;28;20259;-66
2022/03/31 07:41:12;;;;;;;29.80;22.10;;;;;;;8.15;67.39;97310.47;4142438;28;20316;-66
2022/03/31 07:43:13;;;;;;;30.70;21.97;;;;;;;8.01;67.79;97290.28;4141927;28;20696;-66
2022/03/31 07:45:16;;;;;;;29.50;21.43;;;;;;;8.61;67.08;97313.31;4142840;28;20371;-66
2022/03/31 07:47:18;;;;;;;28.70;20.53;;;;;;;9.14;64.95;97276.06;4141796;28;20307;-68
2022/03/31 07:49:19;;;;;;;29.77;20.73;;;;;;;9.02;64.99;97307.72;4142466;28;20782;-66
2022/03/31 07:51:21;;;;;;;28.90;20.70;;;;;;;9.19;64.64;97296.66;4132720;28;20249;-65
2022/03/31 07:53:23;;;;;;;30.67;21.00;;;;;;;8.43;67.09;97304.16;4141132;28;20328;-68
2022/03/31 07:55:25;;;;;;;29.37;22.50;;;;;;;8.80;65.86;97267.41;4141876;28;20261;-66
2022/03/31 07:57:26;;;;;;;30.10;21.37;;;;;;;8.75;66.34;97289.22;4141963;28;20264;-66
2022/03/31 07:59:33;;;;;;;28.33;20.40;;;;;;;8.92;64.85;97260.44;4153700;28;20255;-67
2022/03/31 08:01:35;;;;;;;31.53;23.37;;;;;;;9.33;64.06;97280.47;4158458;28;20244;-66
2022/03/31 08:03:38;;;;;;;29.07;21.53;;;;;;;8.39;67.52;97298.47;4140639;28;20730;-67
2022/03/31 08:05:40;;;;;;;30.70;22.27;;;;;;;8.69;65.55;97247.66;4142360;28;20233;-66
2022/03/31 08:07:41;;;;;;;31.23;22.30;;;;;;;8.88;64.84;97245.16;4140425;28;20264;-66
2022/03/31 08:09:43;;;;;;;29.00;21.73;;;;;;;8.50;66.90;97277.66;4138415;28;20786;-67
2022/03/31 08:11:45;;;;;;;29.30;21.83;;;;;;;9.45;63.16;97202.88;4141415;28;20257;-66
2022/03/31 08:13:47;;;;;;;33.53;22.27;;;;;;;9.64;64.18;97246.25;4141535;28;20229;-67
2022/03/31 08:15:48;;;;;;;28.93;21.87;;;;;;;8.73;66.85;97278.03;4142317;28;20269;-66
2022/03/31 08:17:50;;;;;;;30.13;21.23;;;;;;;8.66;67.47;97289.66;4142033;28;20242;-67
2022/03/31 08:19:52;;;;;;;32.93;21.07;;;;;;;8.37;68.05;97273.19;4141734;28;20251;-68
2022/03/31 08:21:53;;;;;;;28.87;21.83;;;;;;;9.29;65.98;97270.50;4142232;28;20699;-66
2022/03/31 08:23:55;;;;;;;28.10;21.17;;;;;;;9.20;65.43;97239.94;4141577;28;20257;-66
2022/03/31 08:25:57;;;;;;;28.93;21.43;;;;;;;9.53;64.93;97263.63;4141295;28;20256;-67
2022/03/31 08:27:59;;;;;;;29.90;21.40;;;;;;;9.43;65.82;97265.94;4141918;28;20240;-66
2022/03/31 08:30:10;;;;;;;31.90;21.73;;;;;;;9.65;65.02;97261.94;4142182;28;20347;-66
2022/03/31 08:32:15;;;;;;;30.10;21.70;;;;;;;9.29;65.13;97228.06;4141213;28;20286;-67
2022/03/31 08:34:17;;;;;;;29.73;21.20;;;;;;;9.12;66.75;97254.25;4141654;28;20232;-66
2022/03/31 08:36:19;;;;;;;32.50;23.60;;;;;;;9.44;64.97;97220.63;4141546;28;20273;-67
2022/03/31 08:38:22;;;;;;;29.33;22.07;;;;;;;9.06;66.25;97236.53;4147206;28;20860;-67
2022/03/31 08:40:23;;;;;;;30.70;22.63;;;;;;;8.53;67.50;97241.00;4149524;28;20316;-66
2022/03/31 08:42:25;;;;;;;27.43;21.80;;;;;;;8.96;68.38;97284.69;4144427;28;20304;-66
2022/03/31 08:44:29;;;;;;;30.97;23.60;;;;;;;8.88;67.28;97247.81;4141403;28;20852;-66
2022/03/31 08:46:34;;;;;;;29.97;22.20;;;;;;;10.04;64.22;97267.19;4141597;28;20256;-66
2022/03/31 08:48:37;;;;;;;26.47;21.33;;;;;;;9.47;65.20;97240.63;4154403;28;20483;-66
2022/03/31 08:50:39;;;;;;;30.93;22.00;;;;;;;8.77;66.73;97234.19;4158322;28;20324;-66
2022/03/31 08:52:41;;;;;;;30.23;21.90;;;;;;;9.03;67.67;97263.47;4151101;28;20225;-66
2022/03/31 08:54:43;;;;;;;27.97;21.93;;;;;;;8.98;67.56;97263.28;4158023;28;20266;-67
2022/03/31 08:56:44;;;;;;;29.53;21.97;;;;;;;9.17;67.49;97261.59;4157570;28;20234;-66
2022/03/31 08:59:07;;;;;;;29.80;22.17;;;;;;;9.06;68.49;97258.53;4141068;28;20244;-66
2022/03/31 09:01:11;;;;;;;31.93;23.00;;;;;;;10.05;65.67;97261.66;4141608;28;20257;-66
2022/03/31 09:03:13;;;;;;;31.97;23.93;;;;;;;9.50;66.43;97243.66;4139625;28;20249;-68
2022/03/31 09:05:15;;;;;;;29.07;22.83;;;;;;;9.51;66.58;97245.25;4130746;28;20229;-66
2022/03/31 09:07:17;;;;;;;29.47;22.07;;;;;;;10.16;64.60;97241.56;4135867;28;20313;-66
2022/03/31 09:09:18;;;;;;;30.43;24.03;;;;;;;10.24;64.61;97233.34;4141299;28;20320;-66
2022/03/31 09:11:26;;;;;;;29.73;22.97;;;;;;;9.94;64.52;97227.88;4140814;28;20233;-66
2022/03/31 09:13:40;;;;;;;29.33;22.27;;;;;;;11.24;62.11;97226.13;4140901;28;20317;-68
2022/03/31 09:16:02;;;;;;;30.73;24.17;;;;;;;10.81;63.26;97213.75;4141945;28;20855;-67
2022/03/31 09:18:04;;;;;;;28.93;22.97;;;;;;;11.00;62.24;97217.19;4140802;28;20267;-66
2022/03/31 09:20:07;;;;;;;31.47;23.43;;;;;;;11.24;61.66;97228.78;4141679;28;20237;-66
2022/03/31 09:22:09;;;;;;;29.67;24.10;;;;;;;10.42;63.13;97213.13;4151602;28;20732;-67
2022/03/31 09:24:15;;;;;;;29.63;25.17;;;;;;;10.74;62.45;97227.09;4140485;28;20256;-66
2022/03/31 09:26:18;;;;;;;31.77;24.60;;;;;;;11.06;61.34;97221.63;4140189;28;20245;-66
2022/03/31 09:28:22;;;;;;;32.37;24.87;;;;;;;11.08;61.47;97240.81;4141160;28;20325;-67
2022/03/31 09:30:24;;;;;;;30.30;24.03;;;;;;;10.55;61.85;97230.75;4147033;28;20256;-66